Time,TemperatureF,DewpointF,PressureIn,WindDirection,WindDirectionDegrees,WindSpeedMPH,WindSpeedGustMPH,Humidity,HourlyPrecipIn,Conditions,Clouds,dailyrainin,SoftwareType,DateUTC
2013-09-17 00:11:00,66.4,61.7,30.06,WNW,292,5.3,-999.0,85,-99.99,,,0.00,Acu-Link.com,2013-09-17 04:11:00,
2013-09-17 00:27:00,66.0,61.7,30.06,North,0,0.0,-999.0,86,-99.99,,,0.00,Acu-Link.com,2013-09-17 04:27:00,
2013-09-17 00:42:00,65.5,61.2,30.06,North,0,2.2,-999.0,86,-99.99,,,0.00,Acu-Link.com,2013-09-17 04:42:00,
2013-09-17 00:57:00,64.9,61.3,30.06,North,0,0.0,-999.0,88,-99.99,,,0.00,Acu-Link.com,2013-09-17 04:57:00,
2013-09-17 01:12:00,64.6,61.3,30.06,North,0,1.1,-999.0,89,-99.99,,,0.00,Acu-Link.com,2013-09-17 05:12:00,
2013-09-17 01:28:00,64.0,61.0,30.06,North,0,1.7,-999.0,90,-99.99,,,0.00,Acu-Link.com,2013-09-17 05:28:00,
2013-09-17 01:43:00,63.5,60.8,30.06,North,0,0.0,-999.0,91,-99.99,,,0.00,Acu-Link.com,2013-09-17 05:43:00,
2013-09-17 01:58:00,62.6,60.2,30.06,North,0,0.0,-999.0,92,-99.99,,,0.00,Acu-Link.com,2013-09-17 05:58:00,
2013-09-17 02:13:00,62.4,60.3,30.06,North,0,1.7,-999.0,93,-99.99,,,0.00,Acu-Link.com,2013-09-17 06:13:00,
2013-09-17 02:28:00,62.6,59.9,30.06,North,0,1.1,-999.0,91,-99.99,,,0.00,Acu-Link.com,2013-09-17 06:28:00,
2013-09-17 02:44:00,62.1,59.4,30.05,North,0,0.0,-999.0,91,-99.99,,,0.00,Acu-Link.com,2013-09-17 06:44:00,
2013-09-17 02:59:00,61.5,58.8,30.06,North,0,0.0,-999.0,91,-99.99,,,0.00,Acu-Link.com,2013-09-17 06:59:00,
2013-09-17 03:14:00,61.2,58.5,30.06,North,0,0.0,-999.0,91,-99.99,,,0.00,Acu-Link.com,2013-09-17 07:14:00,
2013-09-17 03:29:00,61.2,58.5,30.06,North,0,2.2,-999.0,91,-99.99,,,0.00,Acu-Link.com,2013-09-17 07:29:00,
2013-09-17 03:44:00,61.2,58.9,30.07,North,0,0.0,-999.0,92,-99.99,,,0.00,Acu-Link.com,2013-09-17 07:44:00,
2013-09-17 04:00:00,61.0,58.7,30.07,North,0,0.0,-999.0,92,-99.99,,,0.00,Acu-Link.com,2013-09-17 08:00:00,
2013-09-17 04:15:00,60.4,58.1,30.07,North,0,0.0,-999.0,92,-99.99,,,0.00,Acu-Link.com,2013-09-17 08:15:00,
2013-09-17 04:30:00,59.7,57.7,30.07,North,0,0.0,-999.0,93,-99.99,,,0.00,Acu-Link.com,2013-09-17 08:30:00,
2013-09-17 04:45:00,59.4,57.4,30.07,North,0,2.7,-999.0,93,-99.99,,,0.00,Acu-Link.com,2013-09-17 08:45:00,
2013-09-17 05:00:00,59.2,57.2,30.07,North,0,2.2,-999.0,93,-99.99,,,0.00,Acu-Link.com,2013-09-17 09:00:00,
2013-09-17 05:16:00,59.2,57.2,30.08,North,0,1.7,-999.0,93,-99.99,,,0.00,Acu-Link.com,2013-09-17 09:16:00,
2013-09-17 05:31:00,58.8,56.8,30.08,North,0,1.1,-999.0,93,-99.99,,,0.00,Acu-Link.com,2013-09-17 09:31:00,
2013-09-17 05:46:00,59.0,56.7,30.09,North,0,1.7,-999.0,92,-99.99,,,0.00,Acu-Link.com,2013-09-17 09:46:00,
2013-09-17 06:01:00,58.6,56.6,30.09,North,0,0.0,-999.0,93,-99.99,,,0.00,Acu-Link.com,2013-09-17 10:01:00,
2013-09-17 06:16:00,58.3,56.3,30.10,North,0,0.0,-999.0,93,-99.99,,,0.00,Acu-Link.com,2013-09-17 10:16:00,
2013-09-17 06:32:00,57.9,56.2,30.10,North,0,0.0,-999.0,94,-99.99,,,0.00,Acu-Link.com,2013-09-17 10:32:00,
2013-09-17 06:47:00,57.6,55.9,30.10,North,0,4.7,-999.0,94,-99.99,,,0.00,Acu-Link.com,2013-09-17 10:47:00,
2013-09-17 07:02:00,57.6,55.9,30.12,North,0,0.0,-999.0,94,-99.99,,,0.00,Acu-Link.com,2013-09-17 11:02:00,
2013-09-17 07:17:00,57.2,55.8,30.13,North,0,0.0,-999.0,95,-99.99,,,0.00,Acu-Link.com,2013-09-17 11:17:00,
2013-09-17 07:33:00,57.2,55.8,30.13,North,0,0.0,-999.0,95,-99.99,,,0.00,Acu-Link.com,2013-09-17 11:33:00,
2013-09-17 07:48:00,57.2,55.8,30.14,North,0,3.2,-999.0,95,-99.99,,,0.00,Acu-Link.com,2013-09-17 11:48:00,
2013-09-17 08:03:00,57.7,56.3,30.14,North,0,0.0,-999.0,95,-99.99,,,0.00,Acu-Link.com,2013-09-17 12:03:00,
2013-09-17 08:18:00,59.0,56.7,30.14,North,0,2.7,-999.0,92,-99.99,,,0.00,Acu-Link.com,2013-09-17 12:18:00,
2013-09-17 08:33:00,59.7,57.1,30.15,North,0,0.0,-999.0,91,-99.99,,,0.00,Acu-Link.com,2013-09-17 12:33:00,
2013-09-17 08:49:00,61.0,57.7,30.16,North,0,1.7,-999.0,89,-99.99,,,0.00,Acu-Link.com,2013-09-17 12:49:00,
2013-09-17 09:04:00,62.1,58.2,30.16,North,0,0.0,-999.0,87,-99.99,,,0.00,Acu-Link.com,2013-09-17 13:04:00,
2013-09-17 09:19:00,62.8,58.2,30.17,North,0,0.0,-999.0,85,-99.99,,,0.00,Acu-Link.com,2013-09-17 13:19:00,
2013-09-17 09:34:00,64.0,58.7,30.17,North,0,1.7,-999.0,83,-99.99,,,0.00,Acu-Link.com,2013-09-17 13:34:00,
2013-09-17 09:49:00,64.9,58.6,30.17,North,0,2.7,-999.0,80,-99.99,,,0.00,Acu-Link.com,2013-09-17 13:49:00,
2013-09-17 10:05:00,66.0,59.3,30.18,North,0,2.2,-999.0,79,-99.99,,,0.00,Acu-Link.com,2013-09-17 14:05:00,
2013-09-17 10:20:00,67.5,58.9,30.19,North,0,2.2,-999.0,74,-99.99,,,0.00,Acu-Link.com,2013-09-17 14:20:00,
2013-09-17 10:35:00,68.0,59.0,30.19,North,0,1.1,-999.0,73,-99.99,,,0.00,Acu-Link.com,2013-09-17 14:35:00,
2013-09-17 10:50:00,70.3,58.8,30.19,NE,45,2.7,-999.0,67,-99.99,,,0.00,Acu-Link.com,2013-09-17 14:50:00,
2013-09-17 11:05:00,70.2,58.3,30.20,NNE,22,8.3,-999.0,66,-99.99,,,0.00,Acu-Link.com,2013-09-17 15:05:00,
2013-09-17 11:21:00,72.3,57.6,30.19,NNE,22,3.7,-999.0,60,-99.99,,,0.00,Acu-Link.com,2013-09-17 15:21:00,
2013-09-17 11:36:00,71.8,56.2,30.19,ESE,112,3.2,-999.0,58,-99.99,,,0.00,Acu-Link.com,2013-09-17 15:36:00,
2013-09-17 11:51:00,73.2,56.1,30.19,ESE,112,1.7,-999.0,55,-99.99,,,0.00,Acu-Link.com,2013-09-17 15:51:00,
2013-09-17 12:06:00,73.9,57.2,30.18,ESE,112,1.7,-999.0,56,-99.99,,,0.00,Acu-Link.com,2013-09-17 16:06:00,
2013-09-17 12:22:00,74.5,55.7,30.18,NNW,337,5.8,-999.0,52,-99.99,,,0.00,Acu-Link.com,2013-09-17 16:22:00,
2013-09-17 12:37:00,74.1,54.8,30.18,West,270,2.2,-999.0,51,-99.99,,,0.00,Acu-Link.com,2013-09-17 16:37:00,
2013-09-17 12:52:00,74.8,54.9,30.17,WNW,292,10.4,-999.0,50,-99.99,,,0.00,Acu-Link.com,2013-09-17 16:52:00,
2013-09-17 13:07:00,75.7,54.6,30.17,West,270,2.7,-999.0,48,-99.99,,,0.00,Acu-Link.com,2013-09-17 17:07:00,
2013-09-17 13:22:00,75.9,53.6,30.17,NE,45,3.2,-999.0,46,-99.99,,,0.00,Acu-Link.com,2013-09-17 17:22:00,
2013-09-17 13:38:00,76.6,52.4,30.16,ESE,112,1.7,-999.0,43,-99.99,,,0.00,Acu-Link.com,2013-09-17 17:38:00,
2013-09-17 13:53:00,76.5,52.9,30.16,West,270,1.7,-999.0,44,-99.99,,,0.00,Acu-Link.com,2013-09-17 17:53:00,
2013-09-17 14:08:00,75.7,52.8,30.15,SSE,157,1.1,-999.0,45,-99.99,,,0.00,Acu-Link.com,2013-09-17 18:08:00,
2013-09-17 14:23:00,75.6,53.3,30.15,ESE,112,2.2,-999.0,46,-99.99,,,0.00,Acu-Link.com,2013-09-17 18:23:00,
2013-09-17 14:38:00,76.5,52.9,30.14,ENE,67,6.3,-999.0,44,-99.99,,,0.00,Acu-Link.com,2013-09-17 18:38:00,
2013-09-17 14:54:00,73.9,54.1,30.14,NNE,22,4.7,-999.0,50,-99.99,,,0.00,Acu-Link.com,2013-09-17 18:54:00,
2013-09-17 15:09:00,77.5,53.8,30.13,WNW,292,1.7,-999.0,44,-99.99,,,0.00,Acu-Link.com,2013-09-17 19:09:00,
2013-09-17 15:24:00,76.1,53.2,30.13,SSW,202,1.1,-999.0,45,-99.99,,,0.00,Acu-Link.com,2013-09-17 19:24:00,
2013-09-17 15:39:00,76.1,53.2,30.12,SSE,157,0.0,-999.0,45,-99.99,,,0.00,Acu-Link.com,2013-09-17 19:39:00,
2013-09-17 15:54:00,75.4,53.2,30.12,ESE,112,2.2,-999.0,46,-99.99,,,0.00,Acu-Link.com,2013-09-17 19:54:00,
2013-09-17 16:10:00,76.5,52.9,30.12,NNE,22,1.1,-999.0,44,-99.99,,,0.00,Acu-Link.com,2013-09-17 20:10:00,
2013-09-17 16:25:00,77.5,52.6,30.12,NW,315,1.1,-999.0,42,-99.99,,,0.00,Acu-Link.com,2013-09-17 20:25:00,
2013-09-17 16:40:00,75.7,52.8,30.11,SE,135,0.0,-999.0,45,-99.99,,,0.00,Acu-Link.com,2013-09-17 20:40:00,
2013-09-17 16:55:00,75.7,52.2,30.11,SSE,157,0.0,-999.0,44,-99.99,,,0.00,Acu-Link.com,2013-09-17 20:55:00,
2013-09-17 17:11:00,75.6,52.7,30.11,South,180,0.0,-999.0,45,-99.99,,,0.00,Acu-Link.com,2013-09-17 21:11:00,
2013-09-17 17:26:00,75.0,53.4,30.11,East,90,1.7,-999.0,47,-99.99,,,0.00,Acu-Link.com,2013-09-17 21:26:00,
2013-09-17 17:41:00,75.2,53.6,30.11,North,0,0.0,-999.0,47,-99.99,,,0.00,Acu-Link.com,2013-09-17 21:41:00,
2013-09-17 17:56:00,74.5,53.5,30.10,North,0,0.0,-999.0,48,-99.99,,,0.00,Acu-Link.com,2013-09-17 21:56:00,
2013-09-17 18:11:00,73.6,52.7,30.11,ESE,112,3.2,-999.0,48,-99.99,,,0.00,Acu-Link.com,2013-09-17 22:11:00,
2013-09-17 18:27:00,74.8,53.8,30.11,North,0,0.0,-999.0,48,-99.99,,,0.00,Acu-Link.com,2013-09-17 22:27:00,
2013-09-17 18:42:00,71.8,53.7,30.11,North,0,0.0,-999.0,53,-99.99,,,0.00,Acu-Link.com,2013-09-17 22:42:00,
2013-09-17 18:57:00,70.7,54.2,30.11,North,0,0.0,-999.0,56,-99.99,,,0.00,Acu-Link.com,2013-09-17 22:57:00,
2013-09-17 19:12:00,68.4,54.4,30.11,North,0,0.0,-999.0,61,-99.99,,,0.00,Acu-Link.com,2013-09-17 23:12:00,
2013-09-17 19:27:00,66.7,55.0,30.11,North,0,0.0,-999.0,66,-99.99,,,0.00,Acu-Link.com,2013-09-17 23:27:00,
2013-09-17 19:43:00,64.9,54.1,30.12,North,0,0.0,-999.0,68,-99.99,,,0.00,Acu-Link.com,2013-09-17 23:43:00,
2013-09-17 19:58:00,63.9,53.9,30.12,North,0,0.0,-999.0,70,-99.99,,,0.00,Acu-Link.com,2013-09-17 23:58:00,
2013-09-17 20:13:00,61.9,56.0,30.12,North,0,0.0,-999.0,81,-99.99,,,0.00,Acu-Link.com,2013-09-18 00:13:00,
2013-09-17 20:28:00,60.6,53.7,30.13,North,0,0.0,-999.0,78,-99.99,,,0.00,Acu-Link.com,2013-09-18 00:28:00,
2013-09-17 20:43:00,59.9,53.4,30.12,North,0,0.0,-999.0,79,-99.99,,,0.00,Acu-Link.com,2013-09-18 00:43:00,
2013-09-17 20:58:00,59.5,53.7,30.14,North,0,0.0,-999.0,81,-99.99,,,0.00,Acu-Link.com,2013-09-18 00:58:00,
2013-09-17 21:14:00,59.5,53.7,30.13,North,0,0.0,-999.0,81,-99.99,,,0.00,Acu-Link.com,2013-09-18 01:14:00,
2013-09-17 21:29:00,59.4,53.6,30.15,North,0,0.0,-999.0,81,-99.99,,,0.00,Acu-Link.com,2013-09-18 01:29:00,
2013-09-17 21:44:00,59.2,53.0,30.14,North,0,0.0,-999.0,80,-99.99,,,0.00,Acu-Link.com,2013-09-18 01:44:00,
2013-09-17 21:59:00,58.8,53.0,30.15,North,0,0.0,-999.0,81,-99.99,,,0.00,Acu-Link.com,2013-09-18 01:59:00,
2013-09-17 22:14:00,58.3,52.8,30.15,North,0,0.0,-999.0,82,-99.99,,,0.00,Acu-Link.com,2013-09-18 02:14:00,
2013-09-17 22:30:00,57.9,52.4,30.15,North,0,0.0,-999.0,82,-99.99,,,0.00,Acu-Link.com,2013-09-18 02:30:00,
2013-09-17 22:45:00,57.7,52.2,30.15,North,0,0.0,-999.0,82,-99.99,,,0.00,Acu-Link.com,2013-09-18 02:45:00,
2013-09-17 23:00:00,57.4,52.3,30.16,North,0,0.0,-999.0,83,-99.99,,,0.00,Acu-Link.com,2013-09-18 03:00:00,
2013-09-17 23:15:00,57.0,52.2,30.16,North,0,0.0,-999.0,84,-99.99,,,0.00,Acu-Link.com,2013-09-18 03:15:00,
2013-09-17 23:30:00,56.7,52.2,30.16,North,0,0.0,-999.0,85,-99.99,,,0.00,Acu-Link.com,2013-09-18 03:30:00,
2013-09-17 23:46:00,56.3,52.5,30.16,North,0,0.0,-999.0,87,-99.99,,,0.00,Acu-Link.com,2013-09-18 03:46:00,